sensor_id;sensor_type;location;lat;lon;timestamp;temperature;humidity
43987;DHT22;29650;47.378;8.300;2023-08-06T00:02:15;17.00;99.90
43987;DHT22;29650;47.378;8.300;2023-08-06T00:04:42;17.00;99.90
43987;DHT22;29650;47.378;8.300;2023-08-06T00:07:10;17.00;99.90
43987;DHT22;29650;47.378;8.300;2023-08-06T00:09:37;17.00;99.90
43987;DHT22;29650;47.378;8.300;2023-08-06T00:12:05;17.00;99.90
43987;DHT22;29650;47.378;8.300;2023-08-06T00:14:32;17.00;99.90
43987;DHT22;29650;47.378;8.300;2023-08-06T00:16:59;17.20;99.90
43987;DHT22;29650;47.378;8.300;2023-08-06T00:19:26;17.20;99.90
43987;DHT22;29650;47.378;8.300;2023-08-06T00:21:53;17.10;99.90
43987;DHT22;29650;47.378;8.300;2023-08-06T00:24:21;17.10;99.90
43987;DHT22;29650;47.378;8.300;2023-08-06T00:26:48;17.00;99.90
43987;DHT22;29650;47.378;8.300;2023-08-06T00:29:15;17.00;99.90
43987;DHT22;29650;47.378;8.300;2023-08-06T00:31:42;17.00;99.90
43987;DHT22;29650;47.378;8.300;2023-08-06T00:34:09;16.90;99.90
43987;DHT22;29650;47.378;8.300;2023-08-06T00:36:36;16.80;99.90
43987;DHT22;29650;47.378;8.300;2023-08-06T00:39:03;16.80;99.90
43987;DHT22;29650;47.378;8.300;2023-08-06T00:41:31;16.70;99.90
43987;DHT22;29650;47.378;8.300;2023-08-06T00:43:58;16.70;99.90
43987;DHT22;29650;47.378;8.300;2023-08-06T00:46:25;16.70;99.90
43987;DHT22;29650;47.378;8.300;2023-08-06T00:48:53;16.70;99.90
43987;DHT22;29650;47.378;8.300;2023-08-06T00:51:20;16.80;99.90
43987;DHT22;29650;47.378;8.300;2023-08-06T00:53:48;16.80;99.90
43987;DHT22;29650;47.378;8.300;2023-08-06T00:56:16;16.80;99.90
43987;DHT22;29650;47.378;8.300;2023-08-06T00:58:45;16.90;99.90
43987;DHT22;29650;47.378;8.300;2023-08-06T01:01:12;17.00;99.90
43987;DHT22;29650;47.378;8.300;2023-08-06T01:03:39;16.90;99.90
43987;DHT22;29650;47.378;8.300;2023-08-06T01:06:06;16.90;99.90
43987;DHT22;29650;47.378;8.300;2023-08-06T01:08:40;17.00;98.00
43987;DHT22;29650;47.378;8.300;2023-08-06T01:11:20;17.00;95.90
43987;DHT22;29650;47.378;8.300;2023-08-06T01:13:52;17.10;93.70
43987;DHT22;29650;47.378;8.300;2023-08-06T01:16:21;17.20;93.60
43987;DHT22;29650;47.378;8.300;2023-08-06T01:18:50;17.10;91.30
43987;DHT22;29650;47.378;8.300;2023-08-06T01:21:19;17.00;91.90
43987;DHT22;29650;47.378;8.300;2023-08-06T01:23:46;17.20;92.40
43987;DHT22;29650;47.378;8.300;2023-08-06T01:26:19;17.00;93.90
43987;DHT22;29650;47.378;8.300;2023-08-06T01:28:54;17.10;93.10
43987;DHT22;29650;47.378;8.300;2023-08-06T01:31:27;17.10;91.90
43987;DHT22;29650;47.378;8.300;2023-08-06T01:33:57;17.00;90.60
43987;DHT22;29650;47.378;8.300;2023-08-06T01:36:26;17.00;90.30
43987;DHT22;29650;47.378;8.300;2023-08-06T01:38:54;17.00;90.10
43987;DHT22;29650;47.378;8.300;2023-08-06T01:41:23;17.00;89.20
43987;DHT22;29650;47.378;8.300;2023-08-06T01:43:49;16.90;88.30
43987;DHT22;29650;47.378;8.300;2023-08-06T01:46:16;17.00;87.10
43987;DHT22;29650;47.378;8.300;2023-08-06T01:48:43;17.00;87.10
43987;DHT22;29650;47.378;8.300;2023-08-06T01:51:10;16.90;87.50
43987;DHT22;29650;47.378;8.300;2023-08-06T01:53:39;16.90;84.20
43987;DHT22;29650;47.378;8.300;2023-08-06T01:56:06;16.90;85.00
43987;DHT22;29650;47.378;8.300;2023-08-06T01:58:32;16.80;85.70
43987;DHT22;29650;47.378;8.300;2023-08-06T02:01:01;16.80;83.20
43987;DHT22;29650;47.378;8.300;2023-08-06T02:03:28;16.80;83.50
43987;DHT22;29650;47.378;8.300;2023-08-06T02:05:55;16.90;81.70
43987;DHT22;29650;47.378;8.300;2023-08-06T02:08:22;16.90;82.40
43987;DHT22;29650;47.378;8.300;2023-08-06T02:10:50;16.90;81.50
43987;DHT22;29650;47.378;8.300;2023-08-06T02:13:17;16.90;81.40
43987;DHT22;29650;47.378;8.300;2023-08-06T02:15:44;16.90;79.70
43987;DHT22;29650;47.378;8.300;2023-08-06T02:18:13;16.90;80.70
43987;DHT22;29650;47.378;8.300;2023-08-06T02:20:40;16.90;81.00
43987;DHT22;29650;47.378;8.300;2023-08-06T02:23:07;16.80;78.00
43987;DHT22;29650;47.378;8.300;2023-08-06T02:25:34;16.90;77.60
43987;DHT22;29650;47.378;8.300;2023-08-06T02:28:03;16.80;78.00
43987;DHT22;29650;47.378;8.300;2023-08-06T02:30:29;16.90;77.30
43987;DHT22;29650;47.378;8.300;2023-08-06T02:32:57;16.90;78.00
43987;DHT22;29650;47.378;8.300;2023-08-06T02:35:24;17.00;76.50
43987;DHT22;29650;47.378;8.300;2023-08-06T02:37:50;16.90;75.80
43987;DHT22;29650;47.378;8.300;2023-08-06T02:40:17;17.00;73.70
43987;DHT22;29650;47.378;8.300;2023-08-06T02:42:44;16.90;74.60
43987;DHT22;29650;47.378;8.300;2023-08-06T02:45:12;16.90;74.50
43987;DHT22;29650;47.378;8.300;2023-08-06T02:47:39;16.90;74.20
43987;DHT22;29650;47.378;8.300;2023-08-06T02:50:07;16.90;74.60
43987;DHT22;29650;47.378;8.300;2023-08-06T02:52:34;16.90;75.50
43987;DHT22;29650;47.378;8.300;2023-08-06T02:55:01;16.90;74.60
43987;DHT22;29650;47.378;8.300;2023-08-06T02:57:28;16.90;74.70
43987;DHT22;29650;47.378;8.300;2023-08-06T02:59:55;17.00;74.50
43987;DHT22;29650;47.378;8.300;2023-08-06T03:02:23;17.10;75.10
43987;DHT22;29650;47.378;8.300;2023-08-06T03:04:50;16.80;77.80
43987;DHT22;29650;47.378;8.300;2023-08-06T03:07:17;16.40;85.70
43987;DHT22;29650;47.378;8.300;2023-08-06T03:09:44;16.50;90.60
43987;DHT22;29650;47.378;8.300;2023-08-06T03:12:10;16.60;90.40
43987;DHT22;29650;47.378;8.300;2023-08-06T03:14:38;16.30;91.30
43987;DHT22;29650;47.378;8.300;2023-08-06T03:17:05;16.50;94.60
43987;DHT22;29650;47.378;8.300;2023-08-06T03:19:33;16.30;96.60
43987;DHT22;29650;47.378;8.300;2023-08-06T03:22:00;16.20;94.50
43987;DHT22;29650;47.378;8.300;2023-08-06T03:24:27;16.30;94.20
43987;DHT22;29650;47.378;8.300;2023-08-06T03:26:54;16.30;94.60
43987;DHT22;29650;47.378;8.300;2023-08-06T03:29:21;16.10;94.60
43987;DHT22;29650;47.378;8.300;2023-08-06T03:31:48;16.20;97.10
43987;DHT22;29650;47.378;8.300;2023-08-06T03:34:14;16.20;95.80
43987;DHT22;29650;47.378;8.300;2023-08-06T03:36:43;16.10;94.70
43987;DHT22;29650;47.378;8.300;2023-08-06T03:39:10;16.30;94.10
43987;DHT22;29650;47.378;8.300;2023-08-06T03:41:37;15.90;95.90
43987;DHT22;29650;47.378;8.300;2023-08-06T03:44:04;16.10;95.90
43987;DHT22;29650;47.378;8.300;2023-08-06T03:46:31;16.10;95.90
43987;DHT22;29650;47.378;8.300;2023-08-06T03:48:59;15.90;96.50
43987;DHT22;29650;47.378;8.300;2023-08-06T03:51:26;16.10;96.40
43987;DHT22;29650;47.378;8.300;2023-08-06T03:53:54;16.10;97.50
43987;DHT22;29650;47.378;8.300;2023-08-06T03:56:21;15.90;98.60
43987;DHT22;29650;47.378;8.300;2023-08-06T03:58:48;15.90;98.00
43987;DHT22;29650;47.378;8.300;2023-08-06T04:01:15;16.00;98.40
43987;DHT22;29650;47.378;8.300;2023-08-06T04:03:42;16.10;97.60
43987;DHT22;29650;47.378;8.300;2023-08-06T04:06:09;15.90;97.70
43987;DHT22;29650;47.378;8.300;2023-08-06T04:08:36;15.90;99.70
43987;DHT22;29650;47.378;8.300;2023-08-06T04:11:04;15.80;99.70
43987;DHT22;29650;47.378;8.300;2023-08-06T04:13:31;15.70;99.90
43987;DHT22;29650;47.378;8.300;2023-08-06T04:16:01;15.60;99.90
43987;DHT22;29650;47.378;8.300;2023-08-06T04:18:28;15.60;99.90
43987;DHT22;29650;47.378;8.300;2023-08-06T04:20:55;15.80;99.90
43987;DHT22;29650;47.378;8.300;2023-08-06T04:23:22;16.00;99.90
43987;DHT22;29650;47.378;8.300;2023-08-06T04:25:49;15.50;99.90
43987;DHT22;29650;47.378;8.300;2023-08-06T04:28:18;15.70;99.90
43987;DHT22;29650;47.378;8.300;2023-08-06T04:30:45;15.50;99.90
43987;DHT22;29650;47.378;8.300;2023-08-06T04:33:12;15.40;99.90
43987;DHT22;29650;47.378;8.300;2023-08-06T04:35:39;15.10;99.90
43987;DHT22;29650;47.378;8.300;2023-08-06T04:38:06;14.90;99.90
43987;DHT22;29650;47.378;8.300;2023-08-06T04:40:33;14.60;99.90
43987;DHT22;29650;47.378;8.300;2023-08-06T04:43:00;14.50;99.90
43987;DHT22;29650;47.378;8.300;2023-08-06T04:45:29;14.20;99.90
43987;DHT22;29650;47.378;8.300;2023-08-06T04:47:56;15.30;99.90
43987;DHT22;29650;47.378;8.300;2023-08-06T04:50:23;14.10;99.90
43987;DHT22;29650;47.378;8.300;2023-08-06T04:52:49;14.00;99.90
43987;DHT22;29650;47.378;8.300;2023-08-06T04:55:17;14.10;99.90
43987;DHT22;29650;47.378;8.300;2023-08-06T04:57:44;14.00;99.90
43987;DHT22;29650;47.378;8.300;2023-08-06T05:00:11;14.00;99.90
43987;DHT22;29650;47.378;8.300;2023-08-06T05:02:40;14.30;99.90
43987;DHT22;29650;47.378;8.300;2023-08-06T05:05:07;14.50;99.90
43987;DHT22;29650;47.378;8.300;2023-08-06T05:07:34;14.40;99.90
43987;DHT22;29650;47.378;8.300;2023-08-06T05:10:01;14.50;99.90
43987;DHT22;29650;47.378;8.300;2023-08-06T05:12:30;14.50;99.90
43987;DHT22;29650;47.378;8.300;2023-08-06T05:14:57;14.60;99.90
43987;DHT22;29650;47.378;8.300;2023-08-06T05:17:23;14.70;99.90
43987;DHT22;29650;47.378;8.300;2023-08-06T05:19:52;14.80;99.90
43987;DHT22;29650;47.378;8.300;2023-08-06T05:22:19;14.90;99.90
43987;DHT22;29650;47.378;8.300;2023-08-06T05:24:46;14.80;99.90
43987;DHT22;29650;47.378;8.300;2023-08-06T05:27:13;14.70;99.90
43987;DHT22;29650;47.378;8.300;2023-08-06T05:29:39;15.80;99.90
43987;DHT22;29650;47.378;8.300;2023-08-06T05:32:07;15.20;99.90
43987;DHT22;29650;47.378;8.300;2023-08-06T05:34:34;15.20;99.90
43987;DHT22;29650;47.378;8.300;2023-08-06T05:37:03;15.00;99.90
43987;DHT22;29650;47.378;8.300;2023-08-06T05:39:30;15.10;99.90
43987;DHT22;29650;47.378;8.300;2023-08-06T05:41:57;14.90;99.90
43987;DHT22;29650;47.378;8.300;2023-08-06T05:44:24;15.30;99.90
43987;DHT22;29650;47.378;8.300;2023-08-06T05:46:51;15.10;99.90
43987;DHT22;29650;47.378;8.300;2023-08-06T05:49:19;15.10;99.90
43987;DHT22;29650;47.378;8.300;2023-08-06T05:51:45;15.20;99.90
43987;DHT22;29650;47.378;8.300;2023-08-06T05:54:14;15.20;99.90
43987;DHT22;29650;47.378;8.300;2023-08-06T05:56:41;15.00;99.90
43987;DHT22;29650;47.378;8.300;2023-08-06T05:59:08;15.20;99.90
43987;DHT22;29650;47.378;8.300;2023-08-06T06:01:35;15.10;99.90
43987;DHT22;29650;47.378;8.300;2023-08-06T06:04:02;15.00;99.90
43987;DHT22;29650;47.378;8.300;2023-08-06T06:06:29;15.30;99.90
43987;DHT22;29650;47.378;8.300;2023-08-06T06:08:56;15.40;99.90
43987;DHT22;29650;47.378;8.300;2023-08-06T06:11:24;15.20;99.90
43987;DHT22;29650;47.378;8.300;2023-08-06T06:13:51;15.70;99.90
43987;DHT22;29650;47.378;8.300;2023-08-06T06:16:18;15.60;99.90
43987;DHT22;29650;47.378;8.300;2023-08-06T06:18:45;15.90;99.90
43987;DHT22;29650;47.378;8.300;2023-08-06T06:21:11;15.90;99.90
43987;DHT22;29650;47.378;8.300;2023-08-06T06:23:38;15.80;99.90
43987;DHT22;29650;47.378;8.300;2023-08-06T06:26:05;16.10;99.30
43987;DHT22;29650;47.378;8.300;2023-08-06T06:28:33;15.90;99.30
43987;DHT22;29650;47.378;8.300;2023-08-06T06:31:00;16.00;97.70
43987;DHT22;29650;47.378;8.300;2023-08-06T06:33:28;15.90;95.70
43987;DHT22;29650;47.378;8.300;2023-08-06T06:35:55;15.90;96.70
43987;DHT22;29650;47.378;8.300;2023-08-06T06:38:22;16.10;95.30
43987;DHT22;29650;47.378;8.300;2023-08-06T06:40:54;15.90;93.70
43987;DHT22;29650;47.378;8.300;2023-08-06T06:43:21;16.00;93.10
43987;DHT22;29650;47.378;8.300;2023-08-06T06:45:52;16.00;95.30
43987;DHT22;29650;47.378;8.300;2023-08-06T06:48:20;15.80;92.80
43987;DHT22;29650;47.378;8.300;2023-08-06T06:50:47;15.70;92.00
43987;DHT22;29650;47.378;8.300;2023-08-06T06:53:14;15.50;91.50
43987;DHT22;29650;47.378;8.300;2023-08-06T06:55:41;15.40;92.80
43987;DHT22;29650;47.378;8.300;2023-08-06T06:58:08;15.50;92.50
43987;DHT22;29650;47.378;8.300;2023-08-06T07:00:35;15.60;94.80
43987;DHT22;29650;47.378;8.300;2023-08-06T07:03:04;15.50;95.80
43987;DHT22;29650;47.378;8.300;2023-08-06T07:05:31;15.30;95.40
43987;DHT22;29650;47.378;8.300;2023-08-06T07:07:59;15.40;97.00
43987;DHT22;29650;47.378;8.300;2023-08-06T07:10:26;15.60;96.60
43987;DHT22;29650;47.378;8.300;2023-08-06T07:12:53;15.70;94.70
43987;DHT22;29650;47.378;8.300;2023-08-06T07:15:20;15.70;95.10
43987;DHT22;29650;47.378;8.300;2023-08-06T07:17:47;15.70;94.40
43987;DHT22;29650;47.378;8.300;2023-08-06T07:20:15;15.70;93.50
43987;DHT22;29650;47.378;8.300;2023-08-06T07:22:43;15.80;92.30
43987;DHT22;29650;47.378;8.300;2023-08-06T07:25:10;15.30;92.40
43987;DHT22;29650;47.378;8.300;2023-08-06T07:27:37;15.40;92.80
43987;DHT22;29650;47.378;8.300;2023-08-06T07:30:05;15.60;94.10
43987;DHT22;29650;47.378;8.300;2023-08-06T07:32:32;15.40;91.80
43987;DHT22;29650;47.378;8.300;2023-08-06T07:34:59;15.30;93.40
43987;DHT22;29650;47.378;8.300;2023-08-06T07:37:29;15.30;96.20
43987;DHT22;29650;47.378;8.300;2023-08-06T07:39:56;15.10;97.80
43987;DHT22;29650;47.378;8.300;2023-08-06T07:42:23;15.00;99.90
43987;DHT22;29650;47.378;8.300;2023-08-06T07:44:52;14.70;99.90
43987;DHT22;29650;47.378;8.300;2023-08-06T07:47:19;14.60;99.90
43987;DHT22;29650;47.378;8.300;2023-08-06T07:49:46;14.30;99.90
43987;DHT22;29650;47.378;8.300;2023-08-06T07:52:13;14.50;99.90
43987;DHT22;29650;47.378;8.300;2023-08-06T07:54:41;14.50;99.90
43987;DHT22;29650;47.378;8.300;2023-08-06T07:57:08;14.80;99.90
43987;DHT22;29650;47.378;8.300;2023-08-06T07:59:35;14.80;99.90
43987;DHT22;29650;47.378;8.300;2023-08-06T08:02:03;14.60;99.90
43987;DHT22;29650;47.378;8.300;2023-08-06T08:04:30;14.30;99.90
43987;DHT22;29650;47.378;8.300;2023-08-06T08:06:56;14.50;99.90
43987;DHT22;29650;47.378;8.300;2023-08-06T08:09:23;14.60;99.90
43987;DHT22;29650;47.378;8.300;2023-08-06T08:11:52;14.70;99.90
43987;DHT22;29650;47.378;8.300;2023-08-06T08:14:18;14.30;99.90
43987;DHT22;29650;47.378;8.300;2023-08-06T08:16:45;14.00;99.90
43987;DHT22;29650;47.378;8.300;2023-08-06T08:19:12;14.00;99.90
43987;DHT22;29650;47.378;8.300;2023-08-06T08:21:39;14.20;99.90
43987;DHT22;29650;47.378;8.300;2023-08-06T08:24:06;14.00;99.90
43987;DHT22;29650;47.378;8.300;2023-08-06T08:26:33;14.10;99.90
43987;DHT22;29650;47.378;8.300;2023-08-06T08:29:02;13.90;99.90
43987;DHT22;29650;47.378;8.300;2023-08-06T08:31:29;14.20;99.90
43987;DHT22;29650;47.378;8.300;2023-08-06T08:33:55;13.80;99.90
43987;DHT22;29650;47.378;8.300;2023-08-06T08:36:23;14.10;99.90
43987;DHT22;29650;47.378;8.300;2023-08-06T08:38:50;14.20;99.90
43987;DHT22;29650;47.378;8.300;2023-08-06T08:41:20;14.20;99.90
43987;DHT22;29650;47.378;8.300;2023-08-06T08:43:49;14.30;99.90
43987;DHT22;29650;47.378;8.300;2023-08-06T08:46:19;14.10;99.90
43987;DHT22;29650;47.378;8.300;2023-08-06T08:48:46;14.30;99.90
43987;DHT22;29650;47.378;8.300;2023-08-06T08:51:13;14.70;99.90
43987;DHT22;29650;47.378;8.300;2023-08-06T08:53:41;14.70;99.90
43987;DHT22;29650;47.378;8.300;2023-08-06T08:56:09;14.50;99.90
43987;DHT22;29650;47.378;8.300;2023-08-06T08:58:38;14.60;99.90
43987;DHT22;29650;47.378;8.300;2023-08-06T09:01:05;14.90;99.90
43987;DHT22;29650;47.378;8.300;2023-08-06T09:07:20;14.30;99.90
43987;DHT22;29650;47.378;8.300;2023-08-06T09:09:49;14.60;99.90
43987;DHT22;29650;47.378;8.300;2023-08-06T09:12:18;14.50;99.90
43987;DHT22;29650;47.378;8.300;2023-08-06T09:14:44;14.60;99.90
43987;DHT22;29650;47.378;8.300;2023-08-06T09:17:11;14.60;99.90
43987;DHT22;29650;47.378;8.300;2023-08-06T09:19:42;14.60;99.90
43987;DHT22;29650;47.378;8.300;2023-08-06T09:22:12;14.60;99.90
43987;DHT22;29650;47.378;8.300;2023-08-06T09:24:41;14.60;99.90
43987;DHT22;29650;47.378;8.300;2023-08-06T09:27:11;14.90;99.90
43987;DHT22;29650;47.378;8.300;2023-08-06T09:29:41;15.10;99.90
43987;DHT22;29650;47.378;8.300;2023-08-06T09:32:09;15.40;99.90
43987;DHT22;29650;47.378;8.300;2023-08-06T09:34:39;15.30;99.90
43987;DHT22;29650;47.378;8.300;2023-08-06T09:37:07;15.10;99.90
43987;DHT22;29650;47.378;8.300;2023-08-06T09:39:35;15.20;99.90
43987;DHT22;29650;47.378;8.300;2023-08-06T09:42:04;15.10;99.90
43987;DHT22;29650;47.378;8.300;2023-08-06T09:44:31;15.00;99.90
43987;DHT22;29650;47.378;8.300;2023-08-06T09:47:00;14.90;99.90
43987;DHT22;29650;47.378;8.300;2023-08-06T09:49:28;14.70;99.90
43987;DHT22;29650;47.378;8.300;2023-08-06T09:52:09;14.80;99.90
43987;DHT22;29650;47.378;8.300;2023-08-06T09:54:37;15.00;99.90
43987;DHT22;29650;47.378;8.300;2023-08-06T09:57:06;14.80;99.90
43987;DHT22;29650;47.378;8.300;2023-08-06T09:59:33;14.70;99.90
43987;DHT22;29650;47.378;8.300;2023-08-06T10:02:01;14.90;99.90
43987;DHT22;29650;47.378;8.300;2023-08-06T10:04:29;14.70;99.90
43987;DHT22;29650;47.378;8.300;2023-08-06T10:06:57;14.90;99.90
43987;DHT22;29650;47.378;8.300;2023-08-06T10:09:24;14.70;99.90
43987;DHT22;29650;47.378;8.300;2023-08-06T10:11:52;14.90;99.90
43987;DHT22;29650;47.378;8.300;2023-08-06T10:14:24;14.60;99.90
43987;DHT22;29650;47.378;8.300;2023-08-06T10:16:52;14.70;99.90
43987;DHT22;29650;47.378;8.300;2023-08-06T10:19:19;14.90;99.90
43987;DHT22;29650;47.378;8.300;2023-08-06T10:22:08;14.50;99.90
43987;DHT22;29650;47.378;8.300;2023-08-06T10:24:46;14.70;99.90
43987;DHT22;29650;47.378;8.300;2023-08-06T10:27:13;14.60;99.90
43987;DHT22;29650;47.378;8.300;2023-08-06T10:29:41;14.70;99.90
43987;DHT22;29650;47.378;8.300;2023-08-06T10:32:08;15.00;99.90
43987;DHT22;29650;47.378;8.300;2023-08-06T10:34:54;15.50;99.90
43987;DHT22;29650;47.378;8.300;2023-08-06T10:37:21;14.60;99.90
43987;DHT22;29650;47.378;8.300;2023-08-06T10:39:49;14.60;99.90
43987;DHT22;29650;47.378;8.300;2023-08-06T10:42:21;14.60;99.90
43987;DHT22;29650;47.378;8.300;2023-08-06T10:45:18;14.90;99.90
43987;DHT22;29650;47.378;8.300;2023-08-06T10:47:46;14.60;99.90
43987;DHT22;29650;47.378;8.300;2023-08-06T10:50:14;14.80;99.90
43987;DHT22;29650;47.378;8.300;2023-08-06T10:52:42;15.10;99.90
43987;DHT22;29650;47.378;8.300;2023-08-06T10:55:10;15.30;99.90
43987;DHT22;29650;47.378;8.300;2023-08-06T10:57:37;15.10;99.90
43987;DHT22;29650;47.378;8.300;2023-08-06T11:00:06;14.60;99.90
43987;DHT22;29650;47.378;8.300;2023-08-06T11:02:35;15.20;99.90
43987;DHT22;29650;47.378;8.300;2023-08-06T11:05:07;15.10;99.90
43987;DHT22;29650;47.378;8.300;2023-08-06T11:07:34;15.30;99.90
43987;DHT22;29650;47.378;8.300;2023-08-06T11:10:03;15.50;99.90
43987;DHT22;29650;47.378;8.300;2023-08-06T11:12:30;15.20;99.90
43987;DHT22;29650;47.378;8.300;2023-08-06T11:14:57;15.40;99.90
43987;DHT22;29650;47.378;8.300;2023-08-06T11:17:24;15.10;99.90
43987;DHT22;29650;47.378;8.300;2023-08-06T11:19:53;15.30;99.90
43987;DHT22;29650;47.378;8.300;2023-08-06T11:22:20;14.90;99.90
43987;DHT22;29650;47.378;8.300;2023-08-06T11:24:48;15.00;99.90
43987;DHT22;29650;47.378;8.300;2023-08-06T11:27:16;15.10;99.90
43987;DHT22;29650;47.378;8.300;2023-08-06T11:29:44;15.20;99.90
43987;DHT22;29650;47.378;8.300;2023-08-06T11:32:11;15.30;99.90
43987;DHT22;29650;47.378;8.300;2023-08-06T11:34:39;15.50;99.90
43987;DHT22;29650;47.378;8.300;2023-08-06T11:37:07;15.10;99.90
43987;DHT22;29650;47.378;8.300;2023-08-06T11:39:36;15.40;99.90
43987;DHT22;29650;47.378;8.300;2023-08-06T11:42:04;15.30;99.90
43987;DHT22;29650;47.378;8.300;2023-08-06T11:44:33;15.20;99.90
43987;DHT22;29650;47.378;8.300;2023-08-06T11:47:01;15.30;99.90
43987;DHT22;29650;47.378;8.300;2023-08-06T11:49:39;15.40;99.90
43987;DHT22;29650;47.378;8.300;2023-08-06T11:52:12;15.70;99.90
43987;DHT22;29650;47.378;8.300;2023-08-06T11:54:40;15.80;99.90
43987;DHT22;29650;47.378;8.300;2023-08-06T11:57:07;15.50;99.90
43987;DHT22;29650;47.378;8.300;2023-08-06T11:59:34;15.40;99.90
43987;DHT22;29650;47.378;8.300;2023-08-06T12:02:02;15.60;99.90
43987;DHT22;29650;47.378;8.300;2023-08-06T12:04:31;15.40;99.90
43987;DHT22;29650;47.378;8.300;2023-08-06T12:07:05;15.40;99.90
43987;DHT22;29650;47.378;8.300;2023-08-06T12:09:34;15.30;99.90
43987;DHT22;29650;47.378;8.300;2023-08-06T12:12:04;15.40;99.90
43987;DHT22;29650;47.378;8.300;2023-08-06T12:14:31;15.60;99.90
43987;DHT22;29650;47.378;8.300;2023-08-06T12:16:58;15.30;99.90
43987;DHT22;29650;47.378;8.300;2023-08-06T12:19:25;15.30;99.90
43987;DHT22;29650;47.378;8.300;2023-08-06T12:21:52;15.50;99.90
43987;DHT22;29650;47.378;8.300;2023-08-06T12:24:19;15.10;99.90
43987;DHT22;29650;47.378;8.300;2023-08-06T12:26:48;15.30;99.90
43987;DHT22;29650;47.378;8.300;2023-08-06T12:29:15;14.90;99.90
43987;DHT22;29650;47.378;8.300;2023-08-06T12:31:42;15.30;99.90
43987;DHT22;29650;47.378;8.300;2023-08-06T12:34:08;15.40;99.90
43987;DHT22;29650;47.378;8.300;2023-08-06T12:36:35;15.30;99.90
43987;DHT22;29650;47.378;8.300;2023-08-06T12:39:03;15.10;99.90
43987;DHT22;29650;47.378;8.300;2023-08-06T12:41:30;15.10;99.90
43987;DHT22;29650;47.378;8.300;2023-08-06T12:43:58;14.90;99.90
43987;DHT22;29650;47.378;8.300;2023-08-06T12:46:25;15.00;99.90
43987;DHT22;29650;47.378;8.300;2023-08-06T12:48:52;15.40;99.90
43987;DHT22;29650;47.378;8.300;2023-08-06T12:51:19;15.10;99.90
43987;DHT22;29650;47.378;8.300;2023-08-06T12:53:46;15.80;99.90
43987;DHT22;29650;47.378;8.300;2023-08-06T12:56:13;15.60;99.90
43987;DHT22;29650;47.378;8.300;2023-08-06T12:58:40;15.60;99.90
43987;DHT22;29650;47.378;8.300;2023-08-06T13:01:08;15.30;99.90
43987;DHT22;29650;47.378;8.300;2023-08-06T13:03:35;15.10;99.90
43987;DHT22;29650;47.378;8.300;2023-08-06T13:06:02;15.00;99.90
43987;DHT22;29650;47.378;8.300;2023-08-06T13:08:30;14.80;99.90
43987;DHT22;29650;47.378;8.300;2023-08-06T13:10:57;14.90;99.90
43987;DHT22;29650;47.378;8.300;2023-08-06T13:13:24;14.90;99.90
43987;DHT22;29650;47.378;8.300;2023-08-06T13:15:52;15.10;99.90
43987;DHT22;29650;47.378;8.300;2023-08-06T13:18:20;15.40;99.90
43987;DHT22;29650;47.378;8.300;2023-08-06T13:20:47;15.20;99.90
43987;DHT22;29650;47.378;8.300;2023-08-06T13:23:18;15.60;99.90
43987;DHT22;29650;47.378;8.300;2023-08-06T13:25:45;16.10;99.90
43987;DHT22;29650;47.378;8.300;2023-08-06T13:28:11;16.40;99.90
43987;DHT22;29650;47.378;8.300;2023-08-06T13:30:39;16.30;99.90
43987;DHT22;29650;47.378;8.300;2023-08-06T13:33:07;16.50;99.90
43987;DHT22;29650;47.378;8.300;2023-08-06T13:35:35;16.40;99.90
43987;DHT22;29650;47.378;8.300;2023-08-06T13:38:02;16.30;99.90
43987;DHT22;29650;47.378;8.300;2023-08-06T13:40:29;15.80;99.90
43987;DHT22;29650;47.378;8.300;2023-08-06T13:42:56;16.20;99.90
43987;DHT22;29650;47.378;8.300;2023-08-06T13:45:23;16.10;99.90
43987;DHT22;29650;47.378;8.300;2023-08-06T13:47:50;16.10;99.90
43987;DHT22;29650;47.378;8.300;2023-08-06T13:50:17;15.80;99.90
43987;DHT22;29650;47.378;8.300;2023-08-06T13:52:46;15.80;99.90
43987;DHT22;29650;47.378;8.300;2023-08-06T13:55:13;15.90;99.90
43987;DHT22;29650;47.378;8.300;2023-08-06T13:57:40;16.40;99.90
43987;DHT22;29650;47.378;8.300;2023-08-06T14:00:08;16.10;99.90
43987;DHT22;29650;47.378;8.300;2023-08-06T14:02:35;16.10;99.90
43987;DHT22;29650;47.378;8.300;2023-08-06T14:05:02;15.90;99.90
43987;DHT22;29650;47.378;8.300;2023-08-06T14:07:29;16.70;99.90
43987;DHT22;29650;47.378;8.300;2023-08-06T14:09:58;16.80;99.90
43987;DHT22;29650;47.378;8.300;2023-08-06T14:12:25;16.20;98.90
43987;DHT22;29650;47.378;8.300;2023-08-06T14:14:52;16.50;99.90
43987;DHT22;29650;47.378;8.300;2023-08-06T14:17:18;16.00;98.10
43987;DHT22;29650;47.378;8.300;2023-08-06T14:19:45;16.10;99.90
43987;DHT22;29650;47.378;8.300;2023-08-06T14:22:12;15.90;99.90
43987;DHT22;29650;47.378;8.300;2023-08-06T14:24:39;16.30;99.90
43987;DHT22;29650;47.378;8.300;2023-08-06T14:27:08;16.30;99.80
43987;DHT22;29650;47.378;8.300;2023-08-06T14:29:35;16.30;95.10
43987;DHT22;29650;47.378;8.300;2023-08-06T14:32:03;16.40;95.90
43987;DHT22;29650;47.378;8.300;2023-08-06T14:34:29;16.30;93.50
43987;DHT22;29650;47.378;8.300;2023-08-06T14:36:56;16.40;91.60
43987;DHT22;29650;47.378;8.300;2023-08-06T14:39:24;16.50;90.20
43987;DHT22;29650;47.378;8.300;2023-08-06T14:41:51;16.50;89.20
43987;DHT22;29650;47.378;8.300;2023-08-06T14:44:20;16.30;89.40
43987;DHT22;29650;47.378;8.300;2023-08-06T14:46:47;16.30;87.40
43987;DHT22;29650;47.378;8.300;2023-08-06T14:49:13;16.30;88.10
43987;DHT22;29650;47.378;8.300;2023-08-06T14:51:40;16.50;87.80
43987;DHT22;29650;47.378;8.300;2023-08-06T14:54:07;16.50;84.80
43987;DHT22;29650;47.378;8.300;2023-08-06T14:56:34;16.90;88.50
43987;DHT22;29650;47.378;8.300;2023-08-06T14:59:01;17.20;84.10
43987;DHT22;29650;47.378;8.300;2023-08-06T15:01:29;17.20;80.50
43987;DHT22;29650;47.378;8.300;2023-08-06T15:03:56;17.20;78.50
43987;DHT22;29650;47.378;8.300;2023-08-06T15:06:23;17.00;76.80
43987;DHT22;29650;47.378;8.300;2023-08-06T15:08:50;16.30;75.60
43987;DHT22;29650;47.378;8.300;2023-08-06T15:11:17;16.40;76.00
43987;DHT22;29650;47.378;8.300;2023-08-06T15:13:44;16.50;77.80
43987;DHT22;29650;47.378;8.300;2023-08-06T15:16:11;16.30;78.30
43987;DHT22;29650;47.378;8.300;2023-08-06T15:18:39;16.30;79.50
43987;DHT22;29650;47.378;8.300;2023-08-06T15:21:06;15.90;80.40
43987;DHT22;29650;47.378;8.300;2023-08-06T15:23:33;16.10;81.40
43987;DHT22;29650;47.378;8.300;2023-08-06T15:26:00;16.50;85.30
43987;DHT22;29650;47.378;8.300;2023-08-06T15:28:27;16.50;80.50
43987;DHT22;29650;47.378;8.300;2023-08-06T15:30:54;16.30;77.00
43987;DHT22;29650;47.378;8.300;2023-08-06T15:33:21;16.20;75.70
43987;DHT22;29650;47.378;8.300;2023-08-06T15:35:50;16.30;75.20
43987;DHT22;29650;47.378;8.300;2023-08-06T15:38:17;16.20;72.10